createdAt,value
2018-02-21T00:14:32.708Z,90.70
2018-02-21T00:15:32.905Z,87.10
2018-02-21T00:41:25.207Z,92.70
2018-02-21T00:45:35.522Z,97.40
2018-02-21T02:15:02.998Z,103.80
2018-02-21T02:16:02.992Z,102.70
2018-02-21T02:18:02.964Z,109.00
2018-02-21T02:19:45.355Z,105.80
2018-02-21T02:20:45.352Z,107.30
2018-02-21T02:30:00.848Z,108.30
2018-02-21T02:36:00.126Z,105.70
2018-02-21T02:53:35.059Z,111.20
2018-02-21T02:55:35.040Z,112.40
2018-02-21T02:58:42.443Z,112.60
2018-02-21T02:59:42.443Z,116.70
2018-02-21T03:04:03.181Z,109.70
2018-02-21T03:05:03.174Z,111.90
2018-02-21T03:07:03.145Z,110.80
2018-02-21T03:08:03.131Z,114.30
2018-02-21T03:17:27.770Z,108.10
2018-02-21T03:18:27.768Z,111.90
2018-02-21T03:19:27.749Z,108.50
2018-02-21T03:21:00.950Z,111.90
2018-02-21T03:24:15.180Z,114.20
2018-02-21T03:31:07.154Z,109.80
2018-02-21T03:33:09.565Z,113.60
2018-02-21T03:34:09.559Z,112.20
2018-02-21T03:48:10.847Z,108.60
2018-02-21T03:51:36.499Z,111.40
2018-02-21T03:52:36.494Z,103.40
2018-02-21T03:53:36.477Z,107.40
2018-02-21T03:54:36.465Z,107.30
2018-02-21T03:55:36.457Z,105.80
2018-02-21T03:56:36.438Z,106.70
2018-02-21T03:57:36.420Z,102.20
2018-02-21T03:58:36.420Z,106.80
2018-02-21T03:59:36.404Z,104.50
2018-02-21T04:00:36.386Z,105.10
2018-02-21T04:01:36.376Z,104.80
2018-02-21T04:02:36.363Z,108.00
2018-02-21T04:03:36.347Z,104.60
2018-02-21T04:04:36.352Z,102.60
2018-02-21T04:05:36.328Z,106.70
2018-02-21T04:06:36.311Z,103.90
2018-02-21T04:07:36.298Z,103.50
2018-02-21T04:08:36.295Z,101.80
2018-02-21T04:09:36.283Z,107.40
2018-02-21T04:10:36.270Z,105.50
2018-02-21T04:11:36.286Z,105.90
2018-02-21T04:12:36.242Z,105.60
2018-02-21T04:13:36.225Z,104.20
2018-02-21T04:14:36.218Z,105.70
2018-02-21T04:15:36.203Z,108.00
2018-02-21T04:16:36.185Z,103.60
2018-02-21T04:17:36.178Z,105.10
2018-02-21T04:18:36.163Z,104.10
2018-02-21T04:19:36.152Z,106.80
2018-02-21T04:20:36.146Z,108.70
2018-02-21T04:21:36.280Z,101.10
2018-02-21T04:22:36.112Z,103.30
2018-02-21T04:23:36.106Z,104.90
2018-02-21T04:24:36.092Z,103.00
2018-02-21T04:25:36.082Z,101.40
2018-02-21T04:26:36.071Z,99.30
2018-02-21T04:27:36.052Z,103.00
2018-02-21T04:28:36.035Z,104.20
2018-02-21T04:29:36.023Z,102.30
2018-02-21T04:30:36.019Z,104.90
2018-02-21T04:31:36.008Z,103.60
2018-02-21T04:32:35.988Z,105.30
2018-02-21T04:33:35.976Z,105.80
2018-02-21T04:34:35.961Z,101.40
2018-02-21T04:35:35.949Z,101.00
2018-02-21T04:36:35.949Z,103.50
2018-02-21T04:37:35.928Z,104.60
2018-02-21T04:38:35.911Z,99.50
2018-02-21T04:39:35.898Z,100.80
2018-02-21T04:40:35.898Z,97.40
2018-02-21T04:41:35.878Z,102.60
2018-02-21T04:42:35.870Z,101.10
2018-02-21T04:43:35.876Z,100.00
2018-02-21T04:44:35.841Z,98.50
2018-02-21T04:45:35.831Z,103.20
2018-02-21T04:46:35.816Z,101.80
2018-02-21T04:47:35.804Z,99.50
2018-02-21T04:48:35.789Z,105.60
2018-02-21T04:49:35.778Z,106.50
2018-02-21T04:50:35.768Z,108.20
2018-02-21T04:51:35.756Z,104.30
2018-02-21T04:52:35.745Z,104.70
2018-02-21T04:53:35.735Z,106.90
2018-02-21T04:54:35.719Z,98.50
2018-02-21T04:55:35.705Z,101.80
2018-02-21T04:56:35.699Z,99.30
2018-02-21T04:57:35.684Z,101.40
2018-02-21T04:58:35.673Z,102.30
2018-02-21T04:59:35.658Z,101.20
2018-02-21T05:00:35.640Z,103.90
2018-02-21T05:01:35.632Z,100.30
2018-02-21T05:02:35.618Z,102.50
2018-02-21T05:03:35.610Z,99.30
2018-02-21T05:04:35.591Z,99.70
2018-02-21T05:05:35.577Z,101.50
2018-02-21T05:06:35.569Z,98.50
2018-02-21T05:07:35.557Z,102.90
2018-02-21T05:08:35.548Z,97.90
2018-02-21T05:09:35.533Z,101.00
2018-02-21T05:10:35.520Z,96.50
2018-02-21T05:11:35.508Z,98.00
2018-02-21T05:12:35.497Z,102.70
2018-02-21T05:13:35.490Z,103.40
2018-02-21T05:14:35.471Z,100.40
2018-02-21T05:15:35.457Z,102.10
2018-02-21T05:16:35.455Z,101.80
2018-02-21T05:17:35.428Z,104.50
2018-02-21T05:18:35.431Z,102.70
2018-02-21T05:19:35.412Z,100.70
2018-02-21T05:20:35.394Z,100.80
2018-02-21T05:21:35.682Z,95.20
2018-02-21T05:22:35.372Z,102.90
2018-02-21T05:23:35.372Z,100.40
2018-02-21T05:24:35.345Z,99.90
2018-02-21T05:25:35.334Z,95.90
2018-02-21T05:26:35.314Z,99.80
2018-02-21T05:27:35.303Z,98.90
2018-02-21T05:28:35.298Z,99.00
2018-02-21T05:29:35.283Z,96.60
2018-02-21T05:30:35.274Z,96.70
2018-02-21T05:31:35.258Z,95.50
2018-02-21T05:32:35.242Z,93.20
2018-02-21T05:33:36.129Z,100.30
2018-02-21T05:34:35.218Z,100.20
2018-02-21T05:35:35.212Z,97.80
2018-02-21T05:36:35.215Z,96.70
2018-02-21T05:37:35.184Z,98.60
2018-02-21T05:38:35.166Z,99.90
2018-02-21T05:39:35.155Z,98.60
2018-02-21T05:40:35.150Z,99.40
2018-02-21T05:41:35.133Z,101.40
2018-02-21T05:42:35.118Z,96.20
2018-02-21T05:43:35.104Z,96.50
2018-02-21T05:44:35.100Z,98.40
2018-02-21T05:45:35.082Z,101.40
2018-02-21T05:46:35.069Z,99.20
2018-02-21T05:47:35.057Z,102.60
2018-02-21T05:48:35.043Z,103.70
2018-02-21T05:49:35.032Z,99.70
2018-02-21T05:50:35.026Z,100.50
2018-02-21T05:51:35.008Z,101.20
2018-02-21T05:52:34.994Z,103.20
2018-02-21T05:53:34.980Z,102.10
2018-02-21T05:54:34.964Z,96.80
2018-02-21T05:55:34.950Z,102.60
2018-02-21T05:56:34.951Z,99.00
2018-02-21T05:57:34.931Z,100.50
2018-02-21T05:58:34.918Z,101.70
2018-02-21T05:59:34.904Z,99.10
2018-02-21T06:00:34.887Z,97.70
2018-02-21T06:01:34.881Z,104.40
2018-02-21T06:02:34.870Z,98.30
2018-02-21T06:03:34.853Z,102.20
2018-02-21T06:04:34.849Z,103.10
2018-02-21T06:05:34.832Z,99.20
2018-02-21T06:06:34.817Z,101.50
2018-02-21T06:07:34.799Z,101.60
2018-02-21T06:08:34.795Z,103.30
2018-02-21T06:09:34.783Z,103.50
2018-02-21T06:10:34.767Z,102.10
2018-02-21T06:11:34.756Z,102.00
2018-02-21T06:12:34.741Z,102.70
2018-02-21T06:13:34.723Z,103.40
2018-02-21T06:14:34.718Z,103.50
2018-02-21T06:15:34.704Z,99.60
2018-02-21T06:16:34.689Z,104.20
2018-02-21T06:17:34.675Z,103.80
2018-02-21T06:18:34.687Z,103.60
2018-02-21T06:19:34.644Z,101.50
2018-02-21T06:20:34.636Z,104.50
2018-02-21T06:21:34.629Z,104.00
2018-02-21T06:22:34.613Z,100.80
2018-02-21T06:23:34.597Z,102.30
2018-02-21T06:24:34.586Z,100.40
2018-02-21T06:25:34.575Z,105.70
2018-02-21T06:26:34.558Z,104.10
2018-02-21T06:27:34.550Z,107.20
2018-02-21T06:28:34.529Z,105.20
2018-02-21T06:29:34.521Z,104.80
2018-02-21T06:30:34.511Z,103.20
2018-02-21T06:31:34.511Z,99.80
2018-02-21T06:32:34.477Z,99.30
2018-02-21T06:33:34.462Z,99.30
2018-02-21T06:34:34.468Z,106.60
2018-02-21T06:35:34.446Z,102.90
2018-02-21T06:36:34.432Z,101.60
2018-02-21T06:37:34.417Z,103.80
2018-02-21T06:38:34.398Z,101.40
2018-02-21T06:39:34.389Z,105.00
2018-02-21T06:40:34.382Z,100.10
2018-02-21T06:41:34.362Z,99.40
2018-02-21T06:42:34.353Z,106.90
2018-02-21T06:43:34.338Z,100.60
2018-02-21T06:44:34.324Z,107.20
2018-02-21T06:45:34.313Z,101.30
2018-02-21T06:46:34.300Z,101.20
2018-02-21T06:47:34.291Z,99.80
2018-02-21T06:48:34.271Z,99.90
2018-02-21T06:49:34.263Z,99.80
2018-02-21T06:50:34.241Z,103.10
2018-02-21T06:51:34.231Z,100.50
2018-02-21T06:52:34.226Z,104.20
2018-02-21T06:53:34.207Z,99.50
2018-02-21T06:54:34.195Z,99.20
2018-02-21T06:55:34.177Z,99.70
2018-02-21T06:56:34.171Z,99.00
2018-02-21T06:57:34.160Z,97.00
2018-02-21T06:58:34.143Z,99.30
2018-02-21T06:59:34.127Z,99.90
2018-02-21T07:00:34.121Z,100.80
2018-02-21T07:01:34.102Z,98.50
2018-02-21T07:02:34.094Z,103.70
2018-02-21T07:03:34.079Z,96.90
2018-02-21T07:04:34.062Z,95.90
2018-02-21T07:05:34.051Z,101.20
2018-02-21T07:06:34.035Z,98.60
2018-02-21T07:07:34.021Z,102.10
2018-02-21T07:08:34.011Z,96.40
2018-02-21T07:09:33.998Z,96.40
2018-02-21T07:10:33.985Z,98.70
2018-02-21T07:11:33.974Z,98.80
2018-02-21T07:12:33.964Z,92.50
2018-02-21T07:13:33.955Z,94.10
2018-02-21T07:14:33.936Z,96.10
2018-02-21T07:15:33.957Z,90.50
2018-02-21T07:16:33.910Z,97.90
2018-02-21T07:17:33.895Z,94.60
2018-02-21T07:18:33.884Z,95.60
2018-02-21T07:19:33.873Z,97.60
2018-02-21T07:20:33.859Z,96.40
2018-02-21T07:21:33.843Z,94.30
2018-02-21T07:22:33.830Z,96.50
2018-02-21T07:23:33.817Z,95.80
2018-02-21T07:24:33.808Z,96.20
2018-02-21T07:25:33.797Z,90.90
2018-02-21T07:26:33.782Z,92.10
2018-02-21T07:27:33.768Z,93.40
2018-02-21T07:28:33.755Z,95.30
2018-02-21T07:29:33.742Z,94.60
2018-02-21T07:30:33.736Z,91.50
2018-02-21T07:31:33.718Z,93.20
2018-02-21T07:32:33.702Z,93.80
2018-02-21T07:33:33.689Z,92.50
2018-02-21T07:34:33.680Z,91.90
2018-02-21T07:35:33.669Z,90.20
2018-02-21T07:36:33.653Z,89.10
2018-02-21T07:37:33.640Z,88.00
2018-02-21T07:38:33.624Z,91.30
2018-02-21T07:39:33.611Z,91.70
2018-02-21T07:40:33.609Z,89.00
2018-02-21T07:41:33.590Z,91.60
2018-02-21T07:42:33.581Z,87.50
2018-02-21T07:43:33.564Z,88.60
2018-02-21T07:44:33.554Z,89.20
2018-02-21T07:45:33.553Z,87.00
2018-02-21T07:46:33.531Z,84.20
2018-02-21T07:47:33.530Z,86.10
2018-02-21T07:48:33.503Z,88.30
2018-02-21T07:49:33.486Z,90.80
2018-02-21T07:50:33.479Z,85.40
2018-02-21T07:51:33.566Z,85.60
2018-02-21T07:52:33.453Z,84.30
2018-02-21T07:53:33.439Z,84.80
2018-02-21T07:54:33.429Z,85.10
2018-02-21T07:55:33.415Z,81.90
2018-02-21T07:56:33.405Z,84.60
2018-02-21T07:57:33.392Z,84.80
2018-02-21T07:58:33.375Z,84.10
2018-02-21T07:59:33.362Z,82.30
2018-02-21T08:00:33.355Z,79.40
2018-02-21T08:01:33.341Z,84.20
2018-02-21T08:02:33.332Z,84.70
2018-02-21T08:03:33.571Z,80.30
2018-02-21T08:04:33.302Z,78.80
2018-02-21T08:05:33.291Z,85.60
2018-02-21T08:06:33.341Z,78.70
2018-02-21T08:07:33.269Z,81.70
2018-02-21T08:08:33.258Z,82.20
2018-02-21T08:09:33.250Z,80.20
2018-02-21T08:10:33.239Z,75.90
2018-02-21T08:11:33.218Z,80.20
2018-02-21T08:12:33.216Z,85.00
2018-02-21T08:13:33.194Z,79.80
2018-02-21T08:14:33.184Z,75.80
2018-02-21T08:15:33.276Z,78.00
2018-02-21T08:16:33.159Z,75.40
2018-02-21T08:17:33.147Z,75.80
2018-02-21T08:18:33.130Z,77.70
2018-02-21T08:19:33.118Z,75.70
2018-02-21T08:20:33.116Z,73.90
2018-02-21T08:21:33.098Z,74.10
2018-02-21T08:22:33.087Z,73.60
2018-02-21T08:23:33.070Z,73.00
2018-02-21T08:24:33.063Z,69.60
2018-02-21T08:25:33.050Z,71.70
2018-02-21T08:26:33.039Z,71.30
2018-02-21T08:27:33.028Z,69.60
2018-02-21T08:46:14.817Z,65.10
2018-02-21T10:35:27.204Z,45.90
2018-02-21T10:57:49.302Z,39.30
2018-02-21T11:09:50.592Z,38.60
2018-02-21T11:16:42.794Z,39.70
2018-02-21T11:17:43.196Z,39.20
2018-02-21T11:22:51.916Z,37.20
2018-02-21T11:23:54.536Z,39.90
2018-02-21T11:42:16.683Z,39.90
2018-02-21T11:51:47.263Z,36.30
2018-02-21T12:16:55.448Z,31.70
2018-02-21T12:18:44.618Z,33.80
2018-02-21T12:20:32.835Z,32.20
2018-02-21T12:21:32.071Z,30.60
2018-02-21T12:40:37.011Z,32.90
2018-02-21T12:44:47.570Z,32.30
2018-02-21T13:30:33.525Z,32.50
2018-02-21T13:33:15.935Z,30.70
2018-02-21T13:34:18.769Z,30.00
2018-02-21T13:35:58.345Z,29.30
2018-02-21T13:38:40.759Z,28.40
2018-02-21T13:41:30.646Z,30.10
2018-02-21T13:43:16.679Z,25.80
2018-02-21T13:45:57.915Z,31.10
2018-02-21T14:33:02.659Z,31.20
2018-02-21T14:41:37.625Z,26.50
2018-02-21T14:42:37.630Z,27.10
2018-02-21T14:47:46.575Z,25.40
2018-02-21T14:57:12.170Z,28.00
2018-02-21T14:58:12.173Z,29.00
2018-02-21T14:59:12.161Z,28.80
2018-02-21T15:00:12.154Z,27.10
2018-02-21T15:01:12.163Z,28.50
2018-02-21T15:02:12.151Z,28.20
2018-02-21T15:03:12.133Z,28.80
2018-02-21T15:04:12.142Z,26.50
2018-02-21T15:05:12.136Z,29.70
2018-02-21T15:06:12.123Z,30.10
2018-02-21T15:07:12.119Z,30.10
2018-02-21T15:08:12.120Z,30.10
2018-02-21T15:09:12.103Z,30.60
2018-02-21T15:10:12.102Z,32.30
2018-02-21T15:11:12.098Z,31.20
2018-02-21T15:12:12.089Z,29.70
2018-02-21T15:13:12.082Z,29.90
2018-02-21T15:14:12.083Z,31.00
2018-02-21T15:15:12.239Z,30.20
2018-02-21T15:16:12.082Z,31.40
2018-02-21T15:17:12.072Z,30.60
2018-02-21T15:18:12.072Z,29.60
2018-02-21T15:19:12.068Z,26.00
2018-02-21T15:20:12.062Z,29.00
2018-02-21T15:21:12.046Z,31.80
2018-02-21T15:22:12.035Z,29.70
2018-02-21T15:23:12.043Z,26.00
2018-02-21T15:24:12.026Z,28.60
2018-02-21T15:25:12.024Z,30.10
2018-02-21T15:26:12.026Z,27.10
2018-02-21T15:29:37.705Z,31.10
2018-02-21T15:30:37.690Z,29.80
2018-02-21T15:31:37.727Z,31.10
2018-02-21T15:33:37.659Z,30.60
2018-02-21T15:34:37.665Z,31.10
2018-02-21T15:35:37.650Z,32.30
2018-02-21T15:36:37.632Z,33.10
2018-02-21T15:37:37.639Z,32.60
2018-02-21T15:38:37.702Z,32.50
2018-02-21T15:39:37.613Z,32.20
2018-02-21T15:40:37.606Z,33.50
2018-02-21T15:41:37.633Z,31.70
2018-02-21T15:42:37.584Z,34.10
2018-02-21T15:55:00.017Z,32.10
2018-02-21T16:00:08.549Z,31.70
2018-02-21T16:02:05.963Z,31.40
